Bloomsbury, NJ (08804)

9:21 AM EST on February 11, 2016 (GMT -0500)
Musconetcong Mountains | | Change Station
CLOSE
Current Station
Personal Weather Station
Location: Bloomsbury, NJ
Elevation: 705 ft
Nearby Weather Stations

Elev 705 ft 40.63 °N, 75.09 °W | Updated 38 seconds ago

Partly Cloudy
Partly Cloudy
18.3 °F
Feels Like 18 °F
N
0.0
Wind Variable Wind from West
Gusts 0.0 mph

Today
High -- | Low -- °F
--% Chance of Precip.
Yesterday
High -- | Low -- °F
Precip. -- in
Pressure 29.95 in
Visibility 3.0 miles
Clouds Mostly Cloudy 1800 ft
Mostly Cloudy 2500 ft
Overcast 3500 ft
Windchill 18 °F
Dew Point -4 °F
Humidity 37%
Rainfall 0.00 in
Snow Depth Not available.
6:59 AM 5:29 PM
Waxing Crescent, 12% visible
SPECI KABE 111416Z 28013G19KT 3SM -SN BKN018 BKN025 OVC035 M07/M11 A2995 RMK AO2 P0000 $
Pressure 29.95 in
Visibility 3.0 miles
Clouds Mostly Cloudy 1800 ft
Mostly Cloudy 2500 ft
Overcast 3500 ft
Windchill 18 °F
Dew Point -4 °F
Humidity 37%
Rainfall 0.00 in
Snow Depth Not available.
6:59 AM 5:29 PM
Waxing Crescent, 12% visible
SPECI KABE 111416Z 28013G19KT 3SM -SN BKN018 BKN025 OVC035 M07/M11 A2995 RMK AO2 P0000 $

10-Day Weather Forecast

Almanac

Astronomy

Feb. 11, 2016 Rise Set
Actual Time
Civil Twilight
Nautical Twilight
Astronomical Twilight
Moon
Length of Visible Light
Length of Day
Tomorrow will be .
, % of the Moon is Illuminated

Today's Extremes

State Highs State Lows

Community

WunderPhotos

Upload Photos

1,892,048 photos uploaded!

WunderBlog® & News

Nearby

Air Quality

  Air Quality AQ Index Pollutant
Not available.

Snow Depth

Station Depth Elevation

Earthquake Activity

City Distance Mag. Time & Date
Minimum magnitude displayed is 2.5.

Coastal Water Temperatures

Place Temperature

Stations

Nearby Weather Stations

Station Location Temp. Windchill Dew Point Humidity Wind Precip. Elev Updated Type
                   

Watches & Warnings

There are currently no watches in effect.